createdAt,value
2017-08-08T00:00:26.893Z,1012.71
2017-08-08T00:01:39.491Z,1012.63
2017-08-08T00:02:51.762Z,1012.67
2017-08-08T00:04:04.033Z,1012.61
2017-08-08T00:05:16.632Z,1012.59
2017-08-08T00:06:29.272Z,1012.57
2017-08-08T00:07:41.542Z,1012.55
2017-08-08T00:08:54.088Z,1012.52
2017-08-08T00:10:06.352Z,1012.55
2017-08-08T00:11:18.905Z,1012.5
2017-08-08T00:12:31.534Z,1012.45
2017-08-08T00:13:44.150Z,1012.43
2017-08-08T00:14:56.119Z,1012.43
2017-08-08T00:16:08.689Z,1012.42
2017-08-08T00:17:21.289Z,1012.35
2017-08-08T00:18:33.630Z,1012.4
2017-08-08T00:19:45.941Z,1012.4
2017-08-08T00:20:58.237Z,1012.38
2017-08-08T00:22:10.500Z,1012.39
2017-08-08T00:23:22.488Z,1012.38
2017-08-08T00:24:34.468Z,1012.39
2017-08-08T00:25:47.010Z,1012.41
2017-08-08T00:26:59.621Z,1012.42
2017-08-08T00:28:12.247Z,1012.44
2017-08-08T00:29:24.525Z,1012.36
2017-08-08T00:30:36.871Z,1012.41
2017-08-08T00:31:49.422Z,1012.34
2017-08-08T00:33:01.756Z,1012.34
2017-08-08T00:34:14.363Z,1012.35
2017-08-08T00:35:26.674Z,1012.3
2017-08-08T00:36:39.247Z,1012.3
2017-08-08T00:37:51.531Z,1012.23
2017-08-08T00:39:04.141Z,1012.21
2017-08-08T00:40:16.739Z,1012.21
2017-08-08T00:41:29.366Z,1012.27
2017-08-08T00:42:42.013Z,1012.23
2017-08-08T00:43:54.594Z,1012.21
2017-08-08T00:45:07.217Z,1012.22
2017-08-08T00:46:19.823Z,1012.18
2017-08-08T00:47:32.373Z,1012.21
2017-08-08T00:48:44.689Z,1012.19
2017-08-08T00:49:57.286Z,1012.21
2017-08-08T00:51:09.901Z,1012.16
2017-08-08T00:52:21.582Z,1012.14
2017-08-08T00:53:34.160Z,1012.13
2017-08-08T00:54:46.519Z,1012.08
2017-08-08T00:55:59.160Z,1012.06
2017-08-08T00:57:11.506Z,1012.05
2017-08-08T00:58:24.106Z,1012.03
2017-08-08T00:59:36.749Z,1012
2017-08-08T01:00:49.363Z,1011.99
2017-08-08T01:02:01.991Z,1011.99
2017-08-08T01:03:14.583Z,1011.98
2017-08-08T01:04:26.857Z,1011.92
2017-08-08T01:05:39.439Z,1011.96
2017-08-08T01:06:51.403Z,1011.95
2017-08-08T01:08:03.388Z,1011.95
2017-08-08T01:09:15.025Z,1011.92
2017-08-08T01:10:27.636Z,1011.91
2017-08-08T01:11:39.851Z,1011.88
2017-08-08T01:12:51.797Z,1011.88
2017-08-08T01:14:04.400Z,1011.82
2017-08-08T01:15:16.989Z,1011.84
2017-08-08T01:16:29.596Z,1011.85
2017-08-08T01:17:42.267Z,1011.84
2017-08-08T01:18:54.581Z,1011.86
2017-08-08T01:20:07.103Z,1011.85
2017-08-08T01:21:19.345Z,1011.87
2017-08-08T01:22:31.988Z,1011.9
2017-08-08T01:23:44.625Z,1011.9
2017-08-08T01:24:57.238Z,1011.89
2017-08-08T01:26:09.574Z,1011.85
2017-08-08T01:27:21.834Z,1011.86
2017-08-08T01:28:34.476Z,1011.91
2017-08-08T01:29:47.118Z,1011.86
2017-08-08T01:30:59.967Z,1011.88
2017-08-08T01:32:12.543Z,1011.88
2017-08-08T01:33:25.134Z,1011.92
2017-08-08T01:34:37.389Z,1011.89
2017-08-08T01:35:49.381Z,1011.88
2017-08-08T01:37:02.016Z,1011.91
2017-08-08T01:38:14.642Z,1011.9
2017-08-08T01:39:26.969Z,1011.88
2017-08-08T01:40:39.563Z,1011.85
2017-08-08T01:41:51.803Z,1011.88
2017-08-08T01:43:04.075Z,1011.84
2017-08-08T01:44:16.678Z,1011.82
2017-08-08T01:45:29.275Z,1011.82
2017-08-08T01:46:41.616Z,1011.85
2017-08-08T01:47:53.957Z,1011.83
2017-08-08T01:49:06.525Z,1011.8
2017-08-08T01:50:19.162Z,1011.78
2017-08-08T01:51:31.717Z,1011.81
2017-08-08T01:52:44.272Z,1011.77
2017-08-08T01:53:56.608Z,1011.78
2017-08-08T01:55:08.639Z,1011.8
2017-08-08T01:56:21.217Z,1011.82
2017-08-08T01:57:33.519Z,1011.82
2017-08-08T01:58:45.792Z,1011.8
2017-08-08T01:59:58.176Z,1011.77
2017-08-08T02:01:10.499Z,1011.86
2017-08-08T02:02:22.818Z,1011.87
2017-08-08T02:03:35.400Z,1011.87
2017-08-08T02:04:47.678Z,1011.83
2017-08-08T02:06:00.277Z,1011.84
2017-08-08T02:07:12.305Z,1011.86
2017-08-08T02:08:24.634Z,1011.81
2017-08-08T02:09:37.305Z,1011.83
2017-08-08T02:10:49.525Z,1011.86
2017-08-08T02:12:01.773Z,1011.86
2017-08-08T02:13:14.394Z,1011.89
2017-08-08T02:14:26.926Z,1011.85
2017-08-08T02:15:39.281Z,1011.86
2017-08-08T02:16:51.842Z,1011.86
2017-08-08T02:18:04.429Z,1011.81
2017-08-08T02:19:16.389Z,1011.79
2017-08-08T02:20:29.225Z,1011.78
2017-08-08T02:21:41.818Z,1011.78
2017-08-08T02:22:54.453Z,1011.74
2017-08-08T02:24:06.761Z,1011.76
2017-08-08T02:25:19.352Z,1011.7
2017-08-08T02:26:32.066Z,1011.77
2017-08-08T02:27:44.669Z,1011.71
2017-08-08T02:28:56.617Z,1011.77
2017-08-08T02:30:09.161Z,1011.74
2017-08-08T02:31:21.442Z,1011.75
2017-08-08T02:32:33.694Z,1011.79
2017-08-08T02:33:45.690Z,1011.76
2017-08-08T02:34:58.244Z,1011.75
2017-08-08T02:36:10.539Z,1011.75
2017-08-08T02:37:23.072Z,1011.74
2017-08-08T02:38:35.350Z,1011.73
2017-08-08T02:39:47.678Z,1011.73
2017-08-08T02:40:59.899Z,1011.7
2017-08-08T02:42:12.526Z,1011.72
2017-08-08T02:43:25.094Z,1011.69
2017-08-08T02:44:37.422Z,1011.67
2017-08-08T02:45:50.047Z,1011.67
2017-08-08T02:47:02.935Z,1011.57
2017-08-08T02:48:15.537Z,1011.6
2017-08-08T02:49:27.796Z,1011.55
2017-08-08T02:50:40.446Z,1011.56
2017-08-08T02:51:53.011Z,1011.47
2017-08-08T02:53:05.340Z,1011.5
2017-08-08T02:54:17.995Z,1011.54
2017-08-08T02:55:30.574Z,1011.52
2017-08-08T02:56:42.839Z,1011.47
2017-08-08T02:57:55.103Z,1011.49
2017-08-08T02:59:07.394Z,1011.47
2017-08-08T03:00:19.661Z,1011.45
2017-08-08T03:01:31.910Z,1011.45
2017-08-08T03:02:44.492Z,1011.47
2017-08-08T03:03:57.051Z,1011.43
2017-08-08T03:05:09.647Z,1011.48
2017-08-08T03:06:22.262Z,1011.49
2017-08-08T03:07:34.558Z,1011.48
2017-08-08T03:08:46.864Z,1011.5
2017-08-08T03:09:58.825Z,1011.51
2017-08-08T03:11:11.396Z,1011.48
2017-08-08T03:12:23.628Z,1011.55
2017-08-08T03:13:36.189Z,1011.48
2017-08-08T03:14:48.161Z,1011.49
2017-08-08T03:16:00.747Z,1011.51
2017-08-08T03:17:13.001Z,1011.48
2017-08-08T03:18:25.665Z,1011.46
2017-08-08T03:19:37.968Z,1011.52
2017-08-08T03:20:50.543Z,1011.49
2017-08-08T03:22:03.172Z,1011.5
2017-08-08T03:23:15.780Z,1011.49
2017-08-08T03:24:27.787Z,1011.45
2017-08-08T03:25:40.628Z,1011.45
2017-08-08T03:26:52.943Z,1011.43
2017-08-08T03:28:05.546Z,1011.42
2017-08-08T03:29:18.177Z,1011.43
2017-08-08T03:30:30.132Z,1011.42
2017-08-08T03:31:42.754Z,1011.46
2017-08-08T03:32:55.363Z,1011.37
2017-08-08T03:34:07.969Z,1011.39
2017-08-08T03:35:20.274Z,1011.42
2017-08-08T03:36:32.871Z,1011.42
2017-08-08T03:37:45.188Z,1011.43
2017-08-08T03:38:57.728Z,1011.5
2017-08-08T03:40:10.015Z,1011.48
2017-08-08T03:41:22.352Z,1011.44
2017-08-08T03:42:34.321Z,1011.48
2017-08-08T03:43:46.328Z,1011.4
2017-08-08T03:44:58.875Z,1011.4
2017-08-08T03:46:11.139Z,1011.36
2017-08-08T03:47:23.431Z,1011.32
2017-08-08T03:48:35.644Z,1011.31
2017-08-08T03:49:47.609Z,1011.25
2017-08-08T03:50:59.904Z,1011.26
2017-08-08T03:52:12.713Z,1011.3
2017-08-08T03:53:24.995Z,1011.23
2017-08-08T03:54:37.625Z,1011.25
2017-08-08T03:55:50.227Z,1011.28
2017-08-08T03:57:02.817Z,1011.29
2017-08-08T03:58:15.379Z,1011.29
2017-08-08T03:59:27.983Z,1011.25
2017-08-08T04:00:39.940Z,1011.28
2017-08-08T04:01:52.274Z,1011.25
2017-08-08T04:03:05.174Z,1011.26
2017-08-08T04:04:17.448Z,1011.33
2017-08-08T04:05:30.073Z,1011.32
2017-08-08T04:06:42.407Z,1011.35
2017-08-08T04:07:55.082Z,1011.34
2017-08-08T04:09:07.648Z,1011.35
2017-08-08T04:10:20.220Z,1011.34
2017-08-08T04:11:32.466Z,1011.36
2017-08-08T04:12:45.049Z,1011.32
2017-08-08T04:13:57.683Z,1011.32
2017-08-08T04:15:10.241Z,1011.39
2017-08-08T04:16:22.844Z,1011.36
2017-08-08T04:17:35.449Z,1011.34
2017-08-08T04:18:47.430Z,1011.36
2017-08-08T04:20:00.380Z,1011.42
2017-08-08T04:21:12.617Z,1011.39
2017-08-08T04:22:24.555Z,1011.41
2017-08-08T04:23:37.169Z,1011.4
2017-08-08T04:24:49.698Z,1011.4
2017-08-08T04:26:02.322Z,1011.36
2017-08-08T04:27:14.345Z,1011.39
2017-08-08T04:28:26.670Z,1011.41
2017-08-08T04:29:39.284Z,1011.46
2017-08-08T04:30:51.856Z,1011.5
2017-08-08T04:32:04.499Z,1011.4
2017-08-08T04:33:17.093Z,1011.43
2017-08-08T04:34:29.664Z,1011.42
2017-08-08T04:35:42.167Z,1011.41
2017-08-08T04:36:54.431Z,1011.41
2017-08-08T04:38:07.002Z,1011.47
2017-08-08T04:39:19.260Z,1011.41
2017-08-08T04:40:31.507Z,1011.44
2017-08-08T04:41:44.106Z,1011.38
2017-08-08T04:42:56.708Z,1011.36
2017-08-08T04:44:08.668Z,1011.39
2017-08-08T04:45:21.334Z,1011.33
2017-08-08T04:46:33.903Z,1011.3
2017-08-08T04:47:46.418Z,1011.31
2017-08-08T04:48:59.065Z,1011.35
2017-08-08T04:50:11.618Z,1011.33
2017-08-08T04:51:24.188Z,1011.37
2017-08-08T04:52:36.741Z,1011.38
2017-08-08T04:53:49.355Z,1011.34
2017-08-08T04:55:01.913Z,1011.34
2017-08-08T04:56:14.422Z,1011.32
2017-08-08T04:57:27.051Z,1011.28
2017-08-08T04:58:39.332Z,1011.26
2017-08-08T04:59:51.657Z,1011.26
2017-08-08T05:01:04.313Z,1011.19
2017-08-08T05:02:16.970Z,1011.16
2017-08-08T05:03:28.965Z,1011.2
2017-08-08T05:04:41.000Z,1011.19
2017-08-08T05:05:53.310Z,1011.2
2017-08-08T05:07:05.265Z,1011.26
2017-08-08T05:08:17.851Z,1011.27
2017-08-08T05:09:30.420Z,1011.3
2017-08-08T05:10:42.982Z,1011.31
2017-08-08T05:11:55.593Z,1011.28
2017-08-08T05:13:07.568Z,1011.31
2017-08-08T05:14:19.835Z,1011.33
2017-08-08T05:15:32.480Z,1011.33
2017-08-08T05:16:44.485Z,1011.36
2017-08-08T05:17:57.078Z,1011.31
2017-08-08T05:19:09.938Z,1011.29
2017-08-08T05:20:22.237Z,1011.27
2017-08-08T05:21:34.812Z,1011.21
2017-08-08T05:22:47.103Z,1011.21
2017-08-08T05:23:59.052Z,1011.19
2017-08-08T05:25:11.042Z,1011.18
2017-08-08T05:26:23.294Z,1011.18
2017-08-08T05:27:34.942Z,1011.21
2017-08-08T05:28:47.547Z,1011.14
2017-08-08T05:30:00.156Z,1011.16
2017-08-08T05:31:12.104Z,1011.27
2017-08-08T05:32:24.070Z,1011.23
2017-08-08T05:33:36.369Z,1011.22
2017-08-08T05:34:48.739Z,1011.17
2017-08-08T05:36:01.336Z,1011.11
2017-08-08T05:37:13.925Z,1011.13
2017-08-08T05:38:26.504Z,1011.07
2017-08-08T05:39:39.166Z,1011.11
2017-08-08T05:40:52.015Z,1011.12
2017-08-08T05:42:04.659Z,1011.12
2017-08-08T05:43:17.308Z,1011.17
2017-08-08T05:44:29.576Z,1011.2
2017-08-08T05:45:42.211Z,1011.22
2017-08-08T05:46:54.497Z,1011.27
2017-08-08T05:48:06.790Z,1011.24
2017-08-08T05:49:19.036Z,1011.23
2017-08-08T05:50:31.264Z,1011.2
2017-08-08T05:51:43.828Z,1011.17
2017-08-08T05:52:56.422Z,1011.13
2017-08-08T05:54:09.044Z,1011.16
2017-08-08T05:55:21.618Z,1011.14
2017-08-08T05:56:33.838Z,1011.13
2017-08-08T05:57:46.107Z,1011.19
2017-08-08T05:58:58.734Z,1011.19
2017-08-08T06:00:11.006Z,1011.19
2017-08-08T06:01:23.635Z,1011.18
2017-08-08T06:02:36.190Z,1011.19
2017-08-08T06:03:48.487Z,1011.16
2017-08-08T06:05:01.065Z,1011.11
2017-08-08T06:06:13.754Z,1011.11
2017-08-08T06:07:26.026Z,1011.06
2017-08-08T06:08:38.347Z,1011.08
2017-08-08T06:09:50.296Z,1011.07
2017-08-08T06:11:02.913Z,1011.05
2017-08-08T06:12:15.450Z,1011.05
2017-08-08T06:13:28.035Z,1011.06
2017-08-08T06:14:40.321Z,1011.09
2017-08-08T06:15:52.901Z,1011.12
2017-08-08T06:17:05.518Z,1011.07
2017-08-08T06:18:17.458Z,1011.07
2017-08-08T06:19:30.101Z,1011.04
2017-08-08T06:20:42.737Z,1011.04
2017-08-08T06:21:55.343Z,1011.05
2017-08-08T06:23:07.604Z,1011.04
2017-08-08T06:24:20.194Z,1011.02
2017-08-08T06:25:32.499Z,1011.02
2017-08-08T06:26:44.796Z,1011.03
2017-08-08T06:27:57.434Z,1011.02
2017-08-08T06:29:09.701Z,1011.09
2017-08-08T06:30:21.993Z,1011.1
2017-08-08T06:31:34.598Z,1011.04
2017-08-08T06:32:47.150Z,1011.04
2017-08-08T06:33:59.790Z,1011.06
2017-08-08T06:35:12.312Z,1010.99
2017-08-08T06:36:24.568Z,1011.08
2017-08-08T06:37:36.846Z,1011.15
2017-08-08T06:38:49.172Z,1011.1
2017-08-08T06:40:01.742Z,1011.17
2017-08-08T06:41:14.328Z,1011.09
2017-08-08T06:42:26.562Z,1011.12
2017-08-08T06:43:38.528Z,1011.05
2017-08-08T06:44:51.084Z,1011.07
2017-08-08T06:46:03.401Z,1010.98
2017-08-08T06:47:15.692Z,1010.92
2017-08-08T06:48:28.275Z,1010.89
2017-08-08T06:49:39.663Z,1010.9
2017-08-08T06:50:52.243Z,1010.89
2017-08-08T06:52:04.530Z,1010.91
2017-08-08T06:53:16.822Z,1010.95
2017-08-08T06:54:29.469Z,1010.9
2017-08-08T06:55:41.826Z,1010.91
2017-08-08T06:56:54.450Z,1010.93
2017-08-08T06:58:06.083Z,1010.85
2017-08-08T06:59:18.730Z,1010.83
2017-08-08T07:00:31.334Z,1010.76
2017-08-08T07:01:43.040Z,1010.73
2017-08-08T07:02:55.340Z,1010.61
2017-08-08T07:04:07.966Z,1010.55
2017-08-08T07:05:19.941Z,1010.52
2017-08-08T07:06:32.553Z,1010.5
2017-08-08T07:07:44.875Z,1010.53
2017-08-08T07:08:57.120Z,1010.46
2017-08-08T07:10:09.673Z,1010.46
2017-08-08T07:11:22.264Z,1010.54
2017-08-08T07:12:34.519Z,1010.44
2017-08-08T07:13:47.080Z,1010.48
2017-08-08T07:14:59.700Z,1010.49
2017-08-08T07:16:12.306Z,1010.48
2017-08-08T07:17:24.961Z,1010.49
2017-08-08T07:18:37.238Z,1010.43
2017-08-08T07:19:49.837Z,1010.38
2017-08-08T07:21:01.865Z,1010.4
2017-08-08T07:22:14.144Z,1010.37
2017-08-08T07:23:26.798Z,1010.36
2017-08-08T07:24:38.820Z,1010.29
2017-08-08T07:25:51.441Z,1010.24
2017-08-08T07:27:04.023Z,1010.22
2017-08-08T07:28:16.668Z,1010.2
2017-08-08T07:29:29.325Z,1010.12
2017-08-08T07:30:41.666Z,1010.18
2017-08-08T07:31:53.717Z,1010.19
2017-08-08T07:33:06.301Z,1010.2
2017-08-08T07:34:18.005Z,1010.18
2017-08-08T07:35:30.269Z,1010.13
2017-08-08T07:36:42.873Z,1010.1
2017-08-08T07:37:55.549Z,1010.2
2017-08-08T07:39:08.202Z,1010.18
2017-08-08T07:40:20.502Z,1010.25
2017-08-08T07:41:32.843Z,1010.22
2017-08-08T07:42:45.455Z,1010.25
2017-08-08T07:43:58.126Z,1010.21
2017-08-08T07:45:10.448Z,1010.21
2017-08-08T07:46:22.464Z,1010.17
2017-08-08T07:47:35.072Z,1010.14
2017-08-08T07:48:47.707Z,1010.1
2017-08-08T07:49:59.981Z,1010.18
2017-08-08T07:51:12.616Z,1010.2
2017-08-08T07:52:24.966Z,1010.23
2017-08-08T07:53:36.898Z,1010.28
2017-08-08T07:54:48.911Z,1010.33
2017-08-08T07:56:01.593Z,1010.25
2017-08-08T07:57:13.663Z,1010.24
2017-08-08T07:58:26.253Z,1010.24
2017-08-08T07:59:38.874Z,1010.19
2017-08-08T08:00:51.551Z,1010.17
2017-08-08T08:02:03.890Z,1010.19
2017-08-08T08:03:16.450Z,1010.2
2017-08-08T08:04:28.703Z,1010.19
2017-08-08T08:05:41.349Z,1010.2
2017-08-08T08:06:53.062Z,1010.18
2017-08-08T08:08:05.327Z,1010.24
2017-08-08T08:09:17.611Z,1010.17
2017-08-08T08:10:29.886Z,1010.14
2017-08-08T08:11:42.172Z,1010.15
2017-08-08T08:12:54.472Z,1010.13
2017-08-08T08:14:07.109Z,1010.08
2017-08-08T08:15:19.454Z,1010.07
2017-08-08T08:16:31.774Z,1010.08
2017-08-08T08:17:44.116Z,1010.11
2017-08-08T08:18:56.758Z,1010.07
2017-08-08T08:20:08.773Z,1009.94
2017-08-08T08:21:20.794Z,1009.88
2017-08-08T08:22:33.072Z,1009.86
2017-08-08T08:23:45.147Z,1009.89
2017-08-08T08:24:57.466Z,1009.88
2017-08-08T08:26:09.758Z,1009.9
2017-08-08T08:27:22.352Z,1009.91
2017-08-08T08:28:34.651Z,1009.88
2017-08-08T08:29:47.291Z,1009.86
2017-08-08T08:30:59.256Z,1009.83
2017-08-08T08:32:11.213Z,1009.81
2017-08-08T08:33:23.829Z,1009.82
2017-08-08T08:34:36.465Z,1009.79
2017-08-08T08:35:49.002Z,1009.69
2017-08-08T08:37:01.311Z,1009.71
2017-08-08T08:38:13.571Z,1009.65
2017-08-08T08:39:25.885Z,1009.65
2017-08-08T08:40:38.534Z,1009.7
2017-08-08T08:41:50.579Z,1009.69
2017-08-08T08:43:02.862Z,1009.66
2017-08-08T08:44:15.452Z,1009.66
2017-08-08T08:45:27.430Z,1009.65
2017-08-08T08:46:39.709Z,1009.6
2017-08-08T08:47:52.360Z,1009.58
2017-08-08T08:49:04.652Z,1009.51
2017-08-08T08:50:17.301Z,1009.39
2017-08-08T08:51:29.577Z,1009.31
2017-08-08T08:52:42.214Z,1009.22
2017-08-08T08:53:54.842Z,1009.18
2017-08-08T08:55:07.118Z,1009.18
2017-08-08T08:56:19.184Z,1009.18
2017-08-08T08:57:31.440Z,1009.22
2017-08-08T08:58:43.470Z,1009.3
2017-08-08T08:59:55.523Z,1009.28
2017-08-08T09:01:08.088Z,1009.31
2017-08-08T09:02:20.359Z,1009.35
2017-08-08T09:03:32.681Z,1009.27
2017-08-08T09:04:45.290Z,1009.23
2017-08-08T09:05:57.509Z,1009.25
2017-08-08T09:07:10.072Z,1009.19
2017-08-08T09:08:22.365Z,1009.18
2017-08-08T09:09:34.925Z,1009.2
2017-08-08T09:10:47.272Z,1009.22
2017-08-08T09:11:59.852Z,1009.17
2017-08-08T09:13:12.402Z,1009.14
2017-08-08T09:14:24.719Z,1009.08
2017-08-08T09:15:37.261Z,1009.06
2017-08-08T09:16:49.525Z,1009.1
2017-08-08T09:18:02.087Z,1009.06
2017-08-08T09:19:14.726Z,1009
2017-08-08T09:20:27.332Z,1008.99
2017-08-08T09:21:39.594Z,1008.99
2017-08-08T09:22:51.518Z,1008.87
2017-08-08T09:24:03.750Z,1008.84
2017-08-08T09:25:16.008Z,1008.91
2017-08-08T09:26:28.326Z,1008.91
2017-08-08T09:27:40.629Z,1008.93
2017-08-08T09:28:52.301Z,1008.93
2017-08-08T09:30:04.571Z,1008.91
2017-08-08T09:31:16.588Z,1008.88
2017-08-08T09:32:28.622Z,1008.86
2017-08-08T09:33:41.234Z,1008.83
2017-08-08T09:34:53.538Z,1008.8
2017-08-08T09:36:06.168Z,1008.8
2017-08-08T09:37:18.506Z,1008.77
2017-08-08T09:38:31.152Z,1008.78
2017-08-08T09:39:43.817Z,1008.63
2017-08-08T09:40:56.111Z,1008.7
2017-08-08T09:42:08.797Z,1008.74
2017-08-08T09:43:20.505Z,1008.7
2017-08-08T09:44:33.139Z,1008.73
2017-08-08T09:45:45.792Z,1008.69
2017-08-08T09:46:58.333Z,1008.66
2017-08-08T09:48:10.980Z,1008.6
2017-08-08T09:49:23.552Z,1008.6
2017-08-08T09:50:35.799Z,1008.59
2017-08-08T09:51:48.426Z,1008.62
2017-08-08T09:53:00.424Z,1008.54
2017-08-08T09:54:13.058Z,1008.54
2017-08-08T09:55:25.403Z,1008.51
2017-08-08T09:56:37.999Z,1008.52
2017-08-08T09:57:49.977Z,1008.53
2017-08-08T09:59:02.247Z,1008.58
2017-08-08T10:00:14.544Z,1008.49
2017-08-08T10:01:26.886Z,1008.57
2017-08-08T10:02:39.464Z,1008.49
2017-08-08T10:03:52.102Z,1008.49
2017-08-08T10:05:04.413Z,1008.47
2017-08-08T10:06:17.055Z,1008.44
2017-08-08T10:07:29.353Z,1008.38
2017-08-08T10:08:41.682Z,1008.33
2017-08-08T10:09:54.007Z,1008.37
2017-08-08T10:11:06.300Z,1008.44
2017-08-08T10:12:18.901Z,1008.34
2017-08-08T10:13:31.485Z,1008.25
2017-08-08T10:14:44.070Z,1008.25
2017-08-08T10:15:56.073Z,1008.23
2017-08-08T10:17:08.734Z,1008.16
2017-08-08T10:18:20.811Z,1008.15
2017-08-08T10:19:33.457Z,1008.05
2017-08-08T10:20:46.067Z,1008.03
2017-08-08T10:21:57.716Z,1008.04
2017-08-08T10:23:10.020Z,1008.01
2017-08-08T10:24:22.655Z,1007.98
2017-08-08T10:25:35.268Z,1008.03
2017-08-08T10:26:47.864Z,1008.06
2017-08-08T10:28:00.429Z,1007.92
2017-08-08T10:29:13.075Z,1007.95
2017-08-08T10:30:25.697Z,1007.87
2017-08-08T10:31:38.008Z,1007.86
2017-08-08T10:32:50.658Z,1007.81
2017-08-08T10:34:03.223Z,1007.69
2017-08-08T10:35:15.602Z,1007.8
2017-08-08T10:36:28.312Z,1007.71
2017-08-08T10:37:40.588Z,1007.62
2017-08-08T10:38:53.220Z,1007.57
2017-08-08T10:40:05.552Z,1007.55
2017-08-08T10:41:18.166Z,1007.55
2017-08-08T10:42:30.761Z,1007.52
2017-08-08T10:43:43.068Z,1007.48
2017-08-08T10:44:55.665Z,1007.5
2017-08-08T10:46:07.998Z,1007.48
2017-08-08T10:47:19.978Z,1007.44
2017-08-08T10:48:32.337Z,1007.49
2017-08-08T10:49:44.739Z,1007.45
2017-08-08T10:50:57.063Z,1007.41
2017-08-08T10:52:09.711Z,1007.45
2017-08-08T10:53:22.024Z,1007.48
2017-08-08T10:54:34.064Z,1007.57
2017-08-08T10:55:46.085Z,1007.6
2017-08-08T10:56:58.721Z,1007.69
2017-08-08T10:58:11.293Z,1007.59
2017-08-08T10:59:23.659Z,1007.49
2017-08-08T11:00:36.261Z,1007.69
2017-08-08T11:01:48.910Z,1007.61
2017-08-08T11:03:01.235Z,1007.55
2017-08-08T11:04:13.822Z,1007.56
2017-08-08T11:05:26.112Z,1007.63
2017-08-08T11:06:38.741Z,1007.69
2017-08-08T11:07:51.319Z,1007.67
2017-08-08T11:09:03.686Z,1007.67
2017-08-08T11:10:16.269Z,1007.61
2017-08-08T11:11:28.520Z,1007.6
2017-08-08T11:12:40.609Z,1007.61
2017-08-08T11:13:53.247Z,1007.73
2017-08-08T11:15:05.568Z,1007.67
2017-08-08T11:16:17.863Z,1007.78
2017-08-08T11:17:29.549Z,1007.7
2017-08-08T11:18:42.182Z,1007.79
2017-08-08T11:19:54.592Z,1007.75
2017-08-08T11:21:07.192Z,1007.88
2017-08-08T11:22:19.752Z,1007.91
2017-08-08T11:23:32.547Z,1007.98
2017-08-08T11:24:44.551Z,1008.02
2017-08-08T11:25:56.527Z,1008.05
2017-08-08T11:27:08.843Z,1008.02
2017-08-08T11:28:21.448Z,1008.09
2017-08-08T11:29:34.058Z,1008.06
2017-08-08T11:30:46.648Z,1007.99
2017-08-08T11:31:58.935Z,1008.04
2017-08-08T11:33:11.222Z,1008.04
2017-08-08T11:34:23.518Z,1008.05
2017-08-08T11:35:35.824Z,1008.08
2017-08-08T11:36:48.387Z,1007.98
2017-08-08T11:38:00.680Z,1007.92
2017-08-08T11:39:12.619Z,1007.83
2017-08-08T11:40:24.940Z,1007.8
2017-08-08T11:41:37.569Z,1007.82
2017-08-08T11:42:49.881Z,1007.8
2017-08-08T11:44:02.484Z,1007.78
2017-08-08T11:45:15.104Z,1007.79
2017-08-08T11:46:27.756Z,1007.69
2017-08-08T11:47:40.076Z,1007.7
2017-08-08T11:48:52.743Z,1007.76
2017-08-08T11:50:05.094Z,1007.73
2017-08-08T11:51:17.726Z,1007.69
2017-08-08T11:52:30.010Z,1007.65
2017-08-08T11:53:42.369Z,1007.68
2017-08-08T11:54:55.005Z,1007.67
2017-08-08T11:56:07.618Z,1007.74
2017-08-08T11:57:19.907Z,1007.78
2017-08-08T11:58:31.928Z,1007.85
2017-08-08T11:59:44.459Z,1007.79
2017-08-08T12:00:57.212Z,1007.86
2017-08-08T12:02:09.230Z,1007.86
2017-08-08T12:03:21.259Z,1007.84
2017-08-08T12:04:33.341Z,1007.87
2017-08-08T12:05:45.948Z,1007.87
2017-08-08T12:06:58.264Z,1007.91
2017-08-08T12:08:10.621Z,1007.84
2017-08-08T12:09:22.909Z,1007.81
2017-08-08T12:10:34.891Z,1007.7
2017-08-08T12:11:46.932Z,1007.66
2017-08-08T12:12:59.212Z,1007.52
2017-08-08T12:14:11.519Z,1007.42
2017-08-08T12:15:24.140Z,1007.34
2017-08-08T12:16:36.776Z,1007.37
2017-08-08T12:17:49.070Z,1007.38
2017-08-08T12:19:01.670Z,1007.46
2017-08-08T12:20:14.295Z,1007.37
2017-08-08T12:21:26.583Z,1007.38
2017-08-08T12:22:38.256Z,1007.39
2017-08-08T12:23:50.579Z,1007.49
2017-08-08T12:25:03.208Z,1007.48
2017-08-08T12:26:15.865Z,1007.39
2017-08-08T12:27:28.474Z,1007.32
2017-08-08T12:28:41.075Z,1007.37
2017-08-08T12:29:52.809Z,1007.35
2017-08-08T12:31:04.811Z,1007.28
2017-08-08T12:32:17.458Z,1007.16
2017-08-08T12:33:29.435Z,1007.29
2017-08-08T12:34:42.031Z,1007.19
2017-08-08T12:35:54.638Z,1007.26
2017-08-08T12:37:07.334Z,1007.19
2017-08-08T12:38:19.662Z,1007.18
2017-08-08T12:39:32.246Z,1007.15
2017-08-08T12:40:44.895Z,1007.15
2017-08-08T12:41:57.474Z,1007.08
2017-08-08T12:43:09.812Z,1007.08
2017-08-08T12:44:21.784Z,1007.07
2017-08-08T12:45:34.068Z,1007.01
2017-08-08T12:46:46.121Z,1006.97
2017-08-08T12:47:58.153Z,1006.97
2017-08-08T12:49:10.165Z,1006.88
2017-08-08T12:50:22.809Z,1006.89
2017-08-08T12:51:35.092Z,1006.83
2017-08-08T12:52:47.430Z,1006.85
2017-08-08T12:54:00.038Z,1006.93
2017-08-08T12:55:12.354Z,1006.88
2017-08-08T12:56:25.001Z,1006.84
2017-08-08T12:57:37.686Z,1006.91
2017-08-08T12:58:50.008Z,1006.9
2017-08-08T13:00:02.618Z,1006.83
2017-08-08T13:01:14.622Z,1006.87
2017-08-08T13:02:27.229Z,1006.82
2017-08-08T13:03:39.843Z,1006.79
2017-08-08T13:04:52.187Z,1006.85
2017-08-08T13:06:04.774Z,1006.83
2017-08-08T13:07:17.028Z,1006.84
2017-08-08T13:08:29.612Z,1006.83
2017-08-08T13:09:41.906Z,1006.8
2017-08-08T13:10:54.193Z,1006.84
2017-08-08T13:12:06.868Z,1006.83
2017-08-08T13:13:19.531Z,1006.8
2017-08-08T13:14:32.191Z,1006.77
2017-08-08T13:15:44.823Z,1006.67
2017-08-08T13:16:57.459Z,1006.67
2017-08-08T13:18:10.042Z,1006.67
2017-08-08T13:19:22.622Z,1006.55
2017-08-08T13:20:34.937Z,1006.57
2017-08-08T13:21:47.300Z,1006.43
2017-08-08T13:22:59.910Z,1006.5
2017-08-08T13:24:12.520Z,1006.57
2017-08-08T13:25:25.091Z,1006.54
2017-08-08T13:26:37.688Z,1006.58
2017-08-08T13:27:49.733Z,1006.65
2017-08-08T13:29:01.708Z,1006.63
2017-08-08T13:30:14.392Z,1006.57
2017-08-08T13:31:26.064Z,1006.62
2017-08-08T13:32:38.436Z,1006.65
2017-08-08T13:33:51.014Z,1006.58
2017-08-08T13:35:03.044Z,1006.54
2017-08-08T13:36:15.009Z,1006.6
2017-08-08T13:37:27.376Z,1006.58
2017-08-08T13:38:39.970Z,1006.54
2017-08-08T13:39:52.268Z,1006.48
2017-08-08T13:41:04.570Z,1006.51
2017-08-08T13:42:16.890Z,1006.51
2017-08-08T13:43:28.936Z,1006.53
2017-08-08T13:44:41.526Z,1006.51
2017-08-08T13:45:54.151Z,1006.61
2017-08-08T13:47:06.442Z,1006.48
2017-08-08T13:48:18.720Z,1006.52
2017-08-08T13:49:31.038Z,1006.52
2017-08-08T13:50:43.561Z,1006.38
2017-08-08T13:51:55.328Z,1006.35
2017-08-08T13:53:07.648Z,1006.32
2017-08-08T13:54:19.942Z,1006.39
2017-08-08T13:55:32.306Z,1006.34
2017-08-08T13:56:44.918Z,1006.31
2017-08-08T13:57:57.235Z,1006.3
2017-08-08T13:59:09.232Z,1006.35
2017-08-08T14:00:21.866Z,1006.32
2017-08-08T14:01:34.496Z,1006.18
2017-08-08T14:02:47.096Z,1006.3
2017-08-08T14:03:59.411Z,1006.29
2017-08-08T14:05:11.675Z,1006.32
2017-08-08T14:06:23.953Z,1006.37
2017-08-08T14:07:36.310Z,1006.36
2017-08-08T14:08:48.885Z,1006.28
2017-08-08T14:10:00.969Z,1006.31
2017-08-08T14:11:12.667Z,1006.3
2017-08-08T14:12:25.339Z,1006.28
2017-08-08T14:13:37.572Z,1006.25
2017-08-08T14:14:49.861Z,1006.25
2017-08-08T14:16:02.174Z,1006.37
2017-08-08T14:17:14.221Z,1006.29
2017-08-08T14:18:26.894Z,1006.29
2017-08-08T14:19:39.213Z,1006.27
2017-08-08T14:20:50.952Z,1006.24
2017-08-08T14:22:02.647Z,1006.3
2017-08-08T14:23:15.296Z,1006.21
2017-08-08T14:24:27.942Z,1006.23
2017-08-08T14:25:40.231Z,1006.25
2017-08-08T14:26:52.812Z,1006.18
2017-08-08T14:28:05.372Z,1006.28
2017-08-08T14:29:17.669Z,1006.28
2017-08-08T14:30:30.264Z,1006.34
2017-08-08T14:31:42.584Z,1006.18
2017-08-08T14:32:54.565Z,1006.19
2017-08-08T14:34:06.896Z,1006.19
2017-08-08T14:35:19.163Z,1006.17
2017-08-08T14:36:31.226Z,1006.19
2017-08-08T14:37:43.226Z,1006.1
2017-08-08T14:38:55.607Z,1006.06